Time;durP1;ratioP1;P1;durP2;ratioP2;P2;SDS_P1;SDS_P2;PMS_P1;PMS_P2;Temp;Humidity;BMP_temperature;BMP_pressure;BME280_temperature;BME280_humidity;BME280_pressure;Samples;Min_cycle;Max_cycle;Signal;HPM_P1;HPM_P2
2022/12/17 13:06:33;;;;;;;33.25;19.92;;;;;;;-2.02;100.00;97287.50;4994813;28;20173;-68
2022/12/17 13:09:27;;;;;;;42.97;23.45;;;;;;;-1.99;100.00;97283.47;4994953;28;20596;-67
2022/12/17 13:11:59;;;;;;;39.15;20.80;;;;;;;-1.74;100.00;97279.94;4988998;28;20095;-68
2022/12/17 13:14:52;;;;;;;41.83;23.15;;;;;;;-1.83;100.00;97290.44;4986301;28;20046;-66
2022/12/17 13:17:28;;;;;;;37.90;22.33;;;;;;;-1.67;100.00;97290.41;4984587;28;20038;-67
2022/12/17 13:19:56;;;;;;;38.28;22.35;;;;;;;-1.85;100.00;97286.41;4992876;28;20084;-69
2022/12/17 13:22:21;;;;;;;35.50;20.90;;;;;;;-1.95;100.00;97281.84;4995828;28;20045;-66
2022/12/17 13:24:49;;;;;;;35.15;20.85;;;;;;;-1.74;100.00;97286.09;5003209;28;20061;-67
2022/12/17 13:27:32;;;;;;;41.55;22.70;;;;;;;-1.80;100.00;97286.38;4992036;28;20049;-67
2022/12/17 13:30:21;;;;;;;36.95;21.52;;;;;;;-1.82;100.00;97291.22;4989138;28;20565;-67
2022/12/17 13:33:03;;;;;;;36.03;20.95;;;;;;;-1.75;100.00;97292.56;4989178;28;20426;-66
2022/12/17 13:35:42;;;;;;;39.30;22.08;;;;;;;-1.90;100.00;97295.28;4988283;28;20129;-65
2022/12/17 13:38:34;;;;;;;36.40;20.80;;;;;;;-1.77;100.00;97285.84;4990696;28;20038;-66
2022/12/17 13:41:08;;;;;;;37.45;21.75;;;;;;;-2.04;100.00;97292.34;4989961;28;20507;-66
2022/12/17 13:43:56;;;;;;;40.50;23.75;;;;;;;-2.41;100.00;97290.75;4997573;28;20133;-67
2022/12/17 13:46:27;;;;;;;41.72;24.55;;;;;;;-2.44;100.00;97302.03;4986910;28;20221;-67
2022/12/17 13:48:59;;;;;;;40.30;22.73;;;;;;;-2.48;100.00;97308.16;4988555;28;20488;-66
2022/12/17 13:51:27;;;;;;;40.78;23.02;;;;;;;-2.50;100.00;97308.47;4986746;28;20046;-68
2022/12/17 13:53:56;;;;;;;40.10;22.88;;;;;;;-2.42;100.00;97305.22;5014207;28;20049;-69
2022/12/17 13:56:27;;;;;;;42.22;24.33;;;;;;;-2.43;100.00;97313.53;4991578;28;20038;-67
2022/12/17 13:58:54;;;;;;;42.60;23.95;;;;;;;-2.25;100.00;97317.56;5012828;28;20053;-66
2022/12/17 14:01:20;;;;;;;43.72;24.20;;;;;;;-2.08;100.00;97309.28;5008743;28;20046;-67
2022/12/17 14:03:57;;;;;;;45.28;25.38;;;;;;;-2.30;100.00;97318.41;4993594;28;20042;-67
2022/12/17 14:06:26;;;;;;;41.88;24.40;;;;;;;-2.38;100.00;97313.56;4991013;28;20057;-67
2022/12/17 14:08:55;;;;;;;42.10;25.25;;;;;;;-2.27;100.00;97317.84;4992566;28;20084;-68
2022/12/17 14:14:30;;;;;;;39.17;23.40;;;;;;;-2.01;100.00;97325.91;4985035;28;20050;-66
2022/12/17 14:16:56;;;;;;;45.70;24.55;;;;;;;-2.02;100.00;97329.66;4992571;28;20042;-69
2022/12/17 14:19:23;;;;;;;38.53;22.60;;;;;;;-1.43;100.00;97337.06;4984708;28;20105;-68
2022/12/17 14:21:49;;;;;;;39.35;22.50;;;;;;;-1.13;100.00;97342.59;4988811;28;20046;-67
2022/12/17 14:24:17;;;;;;;37.25;22.02;;;;;;;-1.24;100.00;97337.28;4984305;28;20037;-67
2022/12/17 14:27:01;;;;;;;39.38;23.17;;;;;;;-0.68;100.00;97341.59;4990178;28;20149;-67
2022/12/17 14:29:29;;;;;;;42.05;23.55;;;;;;;-0.56;97.77;97340.44;4985165;28;20046;-67
2022/12/17 14:31:58;;;;;;;37.28;22.65;;;;;;;-1.15;100.00;97342.91;4992564;28;20390;-67
2022/12/17 14:34:24;;;;;;;44.92;26.05;;;;;;;-1.72;100.00;97344.94;4982808;28;20905;-66
2022/12/17 14:36:56;;;;;;;39.20;23.00;;;;;;;-1.80;100.00;97343.59;4990276;28;20034;-66
2022/12/17 14:39:30;;;;;;;58.22;32.97;;;;;;;-2.45;100.00;97337.94;4985899;28;20046;-65
2022/12/17 14:44:50;;;;;;;54.10;31.42;;;;;;;-3.23;100.00;97332.69;4994824;28;20069;-66
2022/12/17 14:47:22;;;;;;;59.30;30.30;;;;;;;-3.33;100.00;97331.56;4989461;28;20042;-67
2022/12/17 14:49:53;;;;;;;70.80;37.60;;;;;;;-3.40;100.00;97335.53;4979288;28;20062;-66
2022/12/17 14:52:34;;;;;;;64.68;34.03;;;;;;;-3.46;100.00;97340.06;4989311;28;20046;-67
2022/12/17 14:55:00;;;;;;;62.60;34.15;;;;;;;-3.47;100.00;97335.78;4997087;28;20463;-68
2022/12/17 14:57:26;;;;;;;74.65;42.45;;;;;;;-3.57;100.00;97336.53;4989045;28;20046;-66
2022/12/17 14:59:51;;;;;;;64.47;37.50;;;;;;;-3.60;100.00;97328.19;4996945;28;20120;-67
2022/12/17 15:02:19;;;;;;;58.85;32.13;;;;;;;-3.63;100.00;97337.56;4992157;28;20836;-67
2022/12/17 15:04:45;;;;;;;62.75;36.67;;;;;;;-3.69;100.00;97335.91;4993712;28;20047;-66
2022/12/17 15:07:14;;;;;;;59.15;32.78;;;;;;;-3.82;100.00;97337.19;4987955;28;20097;-67
2022/12/17 15:09:40;;;;;;;65.85;35.25;;;;;;;-3.85;100.00;97341.19;4995946;28;20042;-66
2022/12/17 15:12:06;;;;;;;64.78;39.53;;;;;;;-3.91;100.00;97339.53;4994245;28;20038;-67
2022/12/17 15:14:32;;;;;;;63.20;38.20;;;;;;;-3.96;100.00;97331.50;4995241;28;20059;-69
2022/12/17 15:16:58;;;;;;;66.00;35.20;;;;;;;-3.99;100.00;97339.22;4997171;28;20482;-68
2022/12/17 15:19:23;;;;;;;63.50;33.17;;;;;;;-4.04;100.00;97343.44;4991057;28;20074;-67
2022/12/17 15:21:49;;;;;;;59.83;31.92;;;;;;;-4.07;100.00;97353.88;4996418;28;20038;-67
2022/12/17 15:24:18;;;;;;;63.03;31.08;;;;;;;-4.13;100.00;97357.56;4987798;28;20042;-66
2022/12/17 15:26:44;;;;;;;59.38;33.88;;;;;;;-4.13;100.00;97357.56;5009529;28;20045;-68
2022/12/17 15:29:10;;;;;;;57.45;33.00;;;;;;;-4.17;100.00;97357.28;5006017;28;20073;-69
2022/12/17 15:31:36;;;;;;;66.22;36.38;;;;;;;-4.20;100.00;97362.31;5002074;28;20483;-68
2022/12/17 15:34:01;;;;;;;61.63;32.92;;;;;;;-4.20;100.00;97368.47;4991937;28;20046;-70
2022/12/17 15:36:30;;;;;;;60.53;33.75;;;;;;;-4.20;100.00;97373.03;4998502;28;20134;-68
2022/12/17 15:38:56;;;;;;;60.53;32.00;;;;;;;-4.28;100.00;97375.09;4996144;28;20117;-68
2022/12/17 15:44:05;;;;;;;59.60;30.67;;;;;;;-4.36;100.00;97372.88;4996582;28;20077;-65
2022/12/17 15:46:30;;;;;;;61.58;31.05;;;;;;;-4.36;100.00;97383.56;4996138;28;20406;-68
2022/12/17 15:48:56;;;;;;;60.35;31.50;;;;;;;-4.36;100.00;97386.25;4995807;28;20048;-69
2022/12/17 15:51:22;;;;;;;66.63;33.72;;;;;;;-4.25;100.00;97382.63;4980056;28;20331;-67
2022/12/17 15:53:50;;;;;;;66.82;32.97;;;;;;;-4.18;100.00;97394.97;5001456;28;20406;-68
2022/12/17 15:56:25;;;;;;;61.03;33.55;;;;;;;-4.18;100.00;97385.06;4985319;28;20045;-67
2022/12/17 15:58:51;;;;;;;55.10;28.73;;;;;;;-4.23;100.00;97382.38;4987568;28;20081;-68
2022/12/17 16:01:17;;;;;;;55.55;29.00;;;;;;;-4.24;100.00;97386.09;4988224;28;20436;-67
2022/12/17 16:03:43;;;;;;;62.85;32.55;;;;;;;-4.25;100.00;97381.81;4996607;28;20062;-67
2022/12/17 16:06:09;;;;;;;66.68;34.50;;;;;;;-4.20;100.00;97389.06;4996749;28;20038;-67
2022/12/17 16:08:37;;;;;;;66.53;32.80;;;;;;;-4.23;100.00;97385.84;5001343;28;20141;-66
2022/12/17 16:11:08;;;;;;;62.40;30.90;;;;;;;-4.24;100.00;97386.09;5002503;28;20042;-67
2022/12/17 16:13:33;;;;;;;62.65;31.20;;;;;;;-4.25;100.00;97387.16;4990541;28;20046;-67
2022/12/17 16:15:59;;;;;;;60.78;30.73;;;;;;;-4.25;100.00;97387.16;4990557;28;20045;-67
2022/12/17 16:18:25;;;;;;;60.75;32.20;;;;;;;-4.27;100.00;97391.94;4987790;28;20050;-68
2022/12/17 16:20:50;;;;;;;59.65;30.40;;;;;;;-4.28;100.00;97385.81;4986244;28;20077;-66
2022/12/17 16:23:16;;;;;;;58.05;30.98;;;;;;;-4.41;100.00;97391.59;4993713;28;20061;-67
2022/12/17 16:25:41;;;;;;;55.95;30.38;;;;;;;-4.38;100.00;97388.38;4999269;28;20042;-67
2022/12/17 16:28:07;;;;;;;57.20;30.98;;;;;;;-4.44;100.00;97384.06;4987162;28;20046;-67
2022/12/17 16:30:33;;;;;;;56.63;31.20;;;;;;;-4.53;100.00;97385.56;4970757;28;20030;-68
2022/12/17 16:32:59;;;;;;;54.15;30.77;;;;;;;-4.64;100.00;97385.47;4994739;28;20038;-68
2022/12/17 16:35:27;;;;;;;52.22;30.23;;;;;;;-4.77;100.00;97383.19;4987760;28;20076;-69
2022/12/17 16:37:53;;;;;;;59.95;30.08;;;;;;;-4.82;100.00;97386.59;4998618;28;20818;-66
2022/12/17 16:40:19;;;;;;;59.83;30.08;;;;;;;-4.77;100.00;97380.53;4983265;28;20068;-67
2022/12/17 16:42:44;;;;;;;55.38;29.17;;;;;;;-4.80;100.00;97375.66;4985213;28;20046;-65
2022/12/17 16:45:10;;;;;;;56.78;29.83;;;;;;;-4.88;100.00;97371.59;4992891;28;20519;-66
2022/12/17 16:47:35;;;;;;;60.30;32.00;;;;;;;-4.92;100.00;97372.31;5004662;28;20044;-67
2022/12/17 16:50:01;;;;;;;65.40;32.40;;;;;;;-5.02;100.00;97375.69;5006101;28;20510;-68
2022/12/17 16:52:26;;;;;;;63.08;32.75;;;;;;;-5.08;100.00;97377.47;5002474;28;20053;-66
2022/12/17 16:54:52;;;;;;;64.47;32.83;;;;;;;-5.17;100.00;97378.97;5000737;28;20129;-67
2022/12/17 16:57:17;;;;;;;69.47;36.25;;;;;;;-5.23;100.00;97388.00;5000011;28;20452;-67
2022/12/17 16:59:43;;;;;;;80.78;43.83;;;;;;;-5.22;100.00;97395.75;4999113;28;20559;-66
2022/12/17 17:02:13;;;;;;;64.40;34.20;;;;;;;-5.19;100.00;97392.56;4991106;28;20041;-69
2022/12/17 17:04:38;;;;;;;87.43;43.25;;;;;;;-5.20;100.00;97390.19;4997366;28;20164;-67
2022/12/17 17:07:04;;;;;;;80.78;41.35;;;;;;;-5.29;100.00;97389.00;4996468;28;20045;-64
2022/12/17 17:09:30;;;;;;;82.65;42.58;;;;;;;-5.35;100.00;97388.09;4998280;28;20053;-67
2022/12/17 17:11:57;;;;;;;93.80;46.35;;;;;;;-5.36;100.00;97388.38;4995883;28;20136;-66
2022/12/17 17:14:24;;;;;;;88.45;45.40;;;;;;;-5.31;100.00;97396.41;4987334;28;21006;-67
2022/12/17 17:16:50;;;;;;;87.22;44.42;;;;;;;-5.28;100.00;97387.94;5004759;28;20049;-68
2022/12/17 17:19:17;;;;;;;97.18;46.40;;;;;;;-5.35;100.00;97393.44;5010976;28;20041;-67
2022/12/17 17:21:48;;;;;;;100.80;50.67;;;;;;;-5.34;100.00;97387.06;5011814;28;20096;-68
2022/12/17 17:24:15;;;;;;;109.15;56.45;;;;;;;-5.35;100.00;97390.75;4992289;28;20041;-67
2022/12/17 17:26:41;;;;;;;106.53;52.88;;;;;;;-5.43;100.00;97399.22;4987103;28;20035;-66
2022/12/17 17:29:07;;;;;;;96.25;49.63;;;;;;;-5.44;100.00;97405.59;4996040;28;20116;-68
2022/12/17 17:31:34;;;;;;;93.53;48.95;;;;;;;-5.48;100.00;97413.28;5010003;28;20387;-66
2022/12/17 17:34:00;;;;;;;100.78;47.97;;;;;;;-5.56;100.00;97411.06;4997024;28;20042;-67
2022/12/17 17:36:28;;;;;;;96.80;48.70;;;;;;;-5.57;100.00;97415.56;4988119;28;20050;-66
2022/12/17 17:38:58;;;;;;;107.57;49.90;;;;;;;-5.69;100.00;97414.06;4988940;28;20476;-66
2022/12/17 17:41:26;;;;;;;106.43;50.55;;;;;;;-5.71;100.00;97416.16;5013137;28;20498;-67
2022/12/17 17:43:58;;;;;;;97.30;49.33;;;;;;;-5.74;100.00;97417.47;5018028;28;20041;-66
2022/12/17 17:46:24;;;;;;;95.57;47.88;;;;;;;-5.77;100.00;97415.28;4997565;28;20523;-66
2022/12/17 17:48:51;;;;;;;92.28;47.58;;;;;;;-5.82;100.00;97416.00;5004421;28;20045;-68
2022/12/17 17:51:21;;;;;;;89.20;43.90;;;;;;;-5.80;100.00;97413.91;5010372;28;20045;-68
2022/12/17 17:53:47;;;;;;;;;;;;;;;-5.87;100.00;97420.44;5003665;28;20046;-68
2022/12/17 17:56:18;;;;;;;93.22;45.30;;;;;;;-5.91;100.00;97422.78;4996803;28;19936;-68
2022/12/17 17:58:49;;;;;;;99.85;47.10;;;;;;;-5.89;100.00;97415.34;5011774;28;20487;-68
2022/12/17 18:01:24;;;;;;;104.35;50.03;;;;;;;-5.97;100.00;97421.13;5003568;28;20047;-67
2022/12/17 18:03:51;;;;;;;110.85;54.55;;;;;;;-5.99;100.00;97423.25;5001208;28;20117;-70
2022/12/17 18:06:17;;;;;;;92.90;46.72;;;;;;;-6.09;100.00;97423.06;5002079;28;20045;-67
2022/12/17 18:08:43;;;;;;;99.60;50.47;;;;;;;-6.17;100.00;97432.28;5015197;28;20086;-65
2022/12/17 18:11:11;;;;;;;103.85;51.63;;;;;;;-6.26;100.00;97441.72;5000282;28;20077;-68
2022/12/17 18:13:55;;;;;;;107.38;53.60;;;;;;;-6.31;100.00;97447.75;5000951;28;20112;-66
2022/12/17 18:16:39;;;;;;;104.07;51.42;;;;;;;-6.39;100.00;97448.97;4980995;28;20096;-66
2022/12/17 18:19:08;;;;;;;111.55;52.67;;;;;;;-6.43;100.00;97444.34;4982865;28;20141;-67
2022/12/17 18:21:34;;;;;;;110.30;54.85;;;;;;;-6.51;100.00;97450.88;4987672;28;20105;-67
2022/12/17 18:24:06;;;;;;;121.32;57.40;;;;;;;-6.61;100.00;97451.50;4989961;28;20656;-67
2022/12/17 18:26:38;;;;;;;119.13;58.55;;;;;;;-6.65;100.00;97449.53;5004317;28;20049;-67
2022/12/17 18:29:25;;;;;;;112.82;49.17;;;;;;;-6.71;100.00;97456.63;5015234;28;20072;-69
2022/12/17 18:31:51;;;;;;;127.40;58.22;;;;;;;-6.75;100.00;97456.28;5003839;28;20395;-68
2022/12/17 18:34:19;;;;;;;140.32;59.60;;;;;;;-6.79;100.00;97468.47;4982325;28;20567;-65
2022/12/17 18:36:46;;;;;;;120.80;55.13;;;;;;;-6.77;100.00;97460.22;4985134;28;20046;-67
2022/12/17 18:39:14;;;;;;;135.10;61.72;;;;;;;-6.72;100.00;97460.31;4982935;28;20042;-67
2022/12/17 18:44:26;;;;;;;130.68;59.53;;;;;;;-6.69;100.00;97469.72;4993470;28;20379;-67
2022/12/17 18:46:51;;;;;;;127.97;58.95;;;;;;;-6.71;100.00;97469.94;4989154;28;20080;-67
2022/12/17 18:49:19;;;;;;;133.82;60.15;;;;;;;-6.71;100.00;97469.94;4991603;28;20116;-67
2022/12/17 18:51:47;;;;;;;136.45;59.83;;;;;;;-6.70;100.00;97476.09;4990662;28;20037;-68
2022/12/17 18:54:19;;;;;;;123.55;52.45;;;;;;;-6.69;100.00;97475.06;5000194;28;20063;-67
2022/12/17 18:56:45;;;;;;;142.30;60.22;;;;;;;-6.61;100.00;97458.66;5004315;28;20042;-68
2022/12/17 18:59:15;;;;;;;129.18;51.45;;;;;;;-6.61;100.00;97454.16;5007197;28;20165;-68
2022/12/17 19:01:41;;;;;;;125.13;55.80;;;;;;;-6.59;100.00;97461.91;4987962;28;20034;-67
2022/12/17 19:04:09;;;;;;;119.63;50.83;;;;;;;-6.58;100.00;97463.53;4997392;28;20048;-67
2022/12/17 19:06:36;;;;;;;131.85;54.03;;;;;;;-6.57;100.00;97462.50;4978602;28;20042;-67
2022/12/17 19:09:02;;;;;;;134.93;61.38;;;;;;;-6.51;100.00;97461.53;4998640;28;20447;-68
2022/12/17 19:11:28;;;;;;;123.63;54.28;;;;;;;-6.57;100.00;97454.50;4990799;28;20491;-66
2022/12/17 19:13:53;;;;;;;118.07;56.50;;;;;;;-6.51;100.00;97463.41;4991593;28;20050;-66
2022/12/17 19:16:22;;;;;;;131.65;55.63;;;;;;;-6.56;100.00;97475.56;4994774;28;20081;-67
2022/12/17 19:19:00;;;;;;;126.50;56.03;;;;;;;-6.59;100.00;97480.56;5000169;28;20257;-66
2022/12/17 19:21:27;;;;;;;127.50;54.73;;;;;;;-6.65;100.00;97489.50;4996246;28;20050;-67
2022/12/17 19:24:00;;;;;;;134.27;55.08;;;;;;;-6.65;100.00;97486.84;4992684;28;20042;-68
2022/12/17 19:26:26;;;;;;;128.05;50.72;;;;;;;-6.65;100.00;97489.50;4989138;28;20076;-68
2022/12/17 19:28:54;;;;;;;127.55;55.53;;;;;;;-6.64;100.00;97493.81;4989825;28;20043;-68
2022/12/17 19:31:22;;;;;;;130.40;54.33;;;;;;;-6.61;100.00;97490.66;4980831;28;20038;-68
2022/12/17 19:33:48;;;;;;;125.22;56.15;;;;;;;-6.62;100.00;97494.38;4986438;28;20096;-68
2022/12/17 19:36:16;;;;;;;134.25;57.67;;;;;;;-6.60;100.00;97494.94;4965372;28;20496;-66
2022/12/17 19:38:42;;;;;;;133.65;50.30;;;;;;;-6.68;100.00;97493.47;4985816;28;20124;-69
2022/12/17 19:41:16;;;;;;;132.00;57.20;;;;;;;-6.61;100.00;97503.97;4993426;28;20499;-68
2022/12/17 19:43:46;;;;;;;122.38;49.45;;;;;;;-6.57;100.00;97502.47;5006861;28;20065;-68
2022/12/17 19:46:15;;;;;;;127.47;52.72;;;;;;;-6.61;100.00;97503.97;4983176;28;20069;-68
2022/12/17 19:48:41;;;;;;;132.43;52.38;;;;;;;-6.60;100.00;97514.41;5004682;28;20407;-67
2022/12/17 19:51:09;;;;;;;120.20;50.03;;;;;;;-6.60;100.00;97510.94;4994371;28;20034;-67
2022/12/17 19:53:36;;;;;;;121.15;49.95;;;;;;;-6.60;100.00;97506.41;4985085;28;20495;-68
2022/12/17 19:56:16;;;;;;;121.82;49.55;;;;;;;-6.60;100.00;97509.06;4985309;28;20434;-67
2022/12/17 19:58:43;;;;;;;125.43;52.92;;;;;;;-6.56;100.00;97515.53;4983131;28;20101;-68
2022/12/17 20:01:15;;;;;;;131.20;53.17;;;;;;;-6.53;100.00;97504.41;4979883;28;20042;-67
2022/12/17 20:03:42;;;;;;;129.05;55.35;;;;;;;-6.53;100.00;97509.75;4988322;28;20471;-67
2022/12/17 20:06:09;;;;;;;125.18;56.20;;;;;;;-6.49;100.00;97515.41;4982305;28;20530;-67
2022/12/17 20:08:35;;;;;;;125.57;52.33;;;;;;;-6.49;100.00;97528.72;4987505;28;20073;-68
2022/12/17 20:11:31;;;;;;;131.25;52.72;;;;;;;-6.50;100.00;97537.75;4988390;28;20042;-68
2022/12/17 20:13:58;;;;;;;131.07;57.90;;;;;;;-6.52;100.00;97531.88;4994877;28;20054;-69
2022/12/17 20:16:25;;;;;;;127.38;56.03;;;;;;;-6.53;100.00;97540.91;4991532;28;20134;-69
2022/12/17 20:18:50;;;;;;;115.53;47.83;;;;;;;-6.54;100.00;97533.97;4987657;28;20042;-68
2022/12/17 20:21:17;;;;;;;119.30;47.45;;;;;;;-6.57;100.00;97537.91;4986910;28;20046;-68
2022/12/17 20:23:46;;;;;;;127.07;49.78;;;;;;;-6.58;100.00;97541.63;4982001;28;20039;-67
2022/12/17 20:26:11;;;;;;;116.28;45.55;;;;;;;-6.51;100.00;97544.16;4992531;28;20129;-67
2022/12/17 20:28:37;;;;;;;101.70;40.10;;;;;;;-6.50;100.00;97536.97;5004864;28;20041;-68
2022/12/17 20:31:03;;;;;;;113.50;42.15;;;;;;;-6.48;100.00;97534.88;5001645;28;20054;-69
2022/12/17 20:33:29;;;;;;;110.90;47.53;;;;;;;-6.43;100.00;97540.31;4991756;28;20051;-67
2022/12/17 20:35:55;;;;;;;109.55;41.10;;;;;;;-6.33;100.00;97537.84;4983954;28;20125;-68
2022/12/17 20:38:21;;;;;;;106.13;41.95;;;;;;;-6.30;100.00;97537.38;4987018;28;20038;-67
2022/12/17 20:40:47;;;;;;;105.65;41.30;;;;;;;-6.24;100.00;97540.94;4996835;28;20547;-67
2022/12/17 20:43:13;;;;;;;108.35;39.35;;;;;;;-6.06;100.00;97537.28;4999271;28;20084;-66
2022/12/17 20:45:46;;;;;;;101.85;39.50;;;;;;;-5.99;100.00;97535.28;5000504;28;20128;-67
2022/12/17 20:48:11;;;;;;;115.43;44.17;;;;;;;-5.98;100.00;97531.53;4997397;28;20046;-67
2022/12/17 20:50:39;;;;;;;109.80;44.65;;;;;;;-6.13;100.00;97520.63;5002290;28;20189;-66
2022/12/17 20:53:05;;;;;;;116.40;46.10;;;;;;;-6.17;100.00;97521.09;4983730;28;20133;-67
2022/12/17 20:55:31;;;;;;;102.40;40.83;;;;;;;-6.13;100.00;97525.94;4991372;28;20039;-67
2022/12/17 20:57:57;;;;;;;97.20;39.00;;;;;;;-6.05;100.00;97541.53;5000108;28;20510;-67
2022/12/17 21:00:23;;;;;;;109.00;47.00;;;;;;;-6.16;100.00;97543.22;4992665;28;20575;-66
2022/12/17 21:02:48;;;;;;;102.45;43.08;;;;;;;-6.19;100.00;97547.19;5014976;28;20045;-67
2022/12/17 21:05:14;;;;;;;104.70;44.03;;;;;;;-6.19;100.00;97546.38;4975952;28;20042;-66
2022/12/17 21:07:39;;;;;;;109.82;41.15;;;;;;;-6.20;100.00;97544.75;4991955;28;20054;-68
2022/12/17 21:10:05;;;;;;;98.32;39.63;;;;;;;-6.20;100.00;97558.88;4993971;28;20044;-67
2022/12/17 21:13:27;;;;;;;118.63;48.20;;;;;;;-6.20;100.00;97547.41;4988753;28;20224;-68
2022/12/17 21:15:16;;;;;;;109.60;40.83;;;;;;;-6.18;100.00;97554.13;4979361;28;20050;-67
2022/12/17 21:17:41;;;;;;;111.15;44.80;;;;;;;-6.24;100.00;97540.94;4984864;28;20066;-67
2022/12/17 21:20:07;;;;;;;114.35;43.80;;;;;;;-6.21;100.00;97548.44;4989749;28;20058;-68
2022/12/17 21:22:32;;;;;;;107.13;41.03;;;;;;;-6.19;100.00;97541.84;4995728;28;20116;-67
2022/12/17 21:24:58;;;;;;;112.60;45.10;;;;;;;-6.21;100.00;97546.63;4988553;28;20483;-68
2022/12/17 21:27:23;;;;;;;118.80;48.45;;;;;;;-6.23;100.00;97537.22;4991522;28;20288;-68
2022/12/17 21:29:48;;;;;;;101.25;38.28;;;;;;;-6.15;100.00;97545.66;5007862;28;20042;-67
2022/12/17 21:32:14;;;;;;;108.05;40.88;;;;;;;-6.11;100.00;97542.50;5005013;28;20077;-68
2022/12/17 21:34:39;;;;;;;107.60;41.45;;;;;;;-6.11;100.00;97545.19;4999096;28;20054;-68
2022/12/17 21:37:05;;;;;;;109.32;41.10;;;;;;;-6.18;100.00;97546.13;4976777;28;20100;-68
2022/12/17 21:39:30;;;;;;;111.93;42.83;;;;;;;-6.20;100.00;97561.53;4987407;28;20105;-67
2022/12/17 21:44:40;;;;;;;119.18;44.05;;;;;;;-6.22;100.00;97560.97;4987872;28;20069;-67
2022/12/17 21:47:05;;;;;;;118.35;48.03;;;;;;;-6.22;100.00;97552.97;5001913;28;20065;-69
2022/12/17 21:49:31;;;;;;;122.85;44.47;;;;;;;-6.18;100.00;97548.78;5005204;28;20046;-69
2022/12/17 21:51:58;;;;;;;115.97;41.70;;;;;;;-6.17;100.00;97542.41;5005077;28;20037;-68
2022/12/17 21:54:23;;;;;;;110.40;45.70;;;;;;;-6.17;100.00;97544.28;4994403;28;20652;-67
2022/12/17 21:56:49;;;;;;;121.57;45.33;;;;;;;-6.20;100.00;97544.75;4992023;28;20066;-68
2022/12/17 21:59:15;;;;;;;112.43;44.72;;;;;;;-6.09;100.00;97529.75;4980366;28;20038;-68
2022/12/17 22:01:40;;;;;;;116.30;41.08;;;;;;;-6.09;100.00;97551.09;4985866;28;20112;-69
2022/12/17 22:04:05;;;;;;;117.28;44.50;;;;;;;-6.15;100.00;97550.19;4982159;28;20483;-69
2022/12/17 22:06:37;;;;;;;121.22;42.53;;;;;;;-5.95;100.00;97552.38;4995655;28;20072;-68
2022/12/17 22:09:04;;;;;;;117.75;43.03;;;;;;;-5.74;100.00;97550.88;5011144;28;20034;-68
2022/12/17 22:11:30;;;;;;;112.00;40.78;;;;;;;-5.61;100.00;97544.44;5005766;28;20034;-68
2022/12/17 22:14:04;;;;;;;114.60;46.83;;;;;;;-5.89;100.00;97545.28;4999586;28;20110;-69
2022/12/17 22:16:41;;;;;;;111.60;39.88;;;;;;;-5.54;100.00;97549.63;4984478;28;20050;-68
2022/12/17 22:19:09;;;;;;;101.60;39.83;;;;;;;-5.36;100.00;97554.72;4987489;28;20171;-70
2022/12/17 22:21:36;;;;;;;107.78;44.78;;;;;;;-5.47;100.00;97555.63;4994698;28;20078;-68
2022/12/17 22:24:03;;;;;;;111.55;39.58;;;;;;;-5.18;100.00;97565.13;4988505;28;20132;-69
2022/12/17 22:26:28;;;;;;;95.40;35.45;;;;;;;-5.14;100.00;97568.13;4999599;28;20031;-68
2022/12/17 22:28:54;;;;;;;97.80;36.55;;;;;;;-4.96;100.00;97560.91;5004694;28;20046;-69
2022/12/17 22:34:05;;;;;;;97.90;37.55;;;;;;;-5.20;100.00;97559.25;5011632;28;20054;-69
2022/12/17 22:36:32;;;;;;;93.97;37.10;;;;;;;-5.04;100.00;97554.94;5023586;28;20655;-67
2022/12/17 22:39:02;;;;;;;105.10;41.00;;;;;;;-5.08;100.00;97572.47;4990679;28;20038;-68
2022/12/17 22:44:11;;;;;;;109.40;40.35;;;;;;;-5.39;100.00;97564.00;4977680;28;20399;-67
2022/12/17 22:46:37;;;;;;;98.63;37.90;;;;;;;-5.07;100.00;97567.97;4981230;28;20042;-67
2022/12/17 22:49:04;;;;;;;94.13;36.50;;;;;;;-4.92;100.00;97578.06;4977262;28;20050;-67
2022/12/17 22:51:29;;;;;;;97.28;37.55;;;;;;;-4.81;100.00;97577.97;4981872;28;20510;-68
2022/12/17 22:53:55;;;;;;;96.93;37.88;;;;;;;-4.67;100.00;97565.06;4996769;28;20049;-69
2022/12/17 22:56:21;;;;;;;103.03;40.33;;;;;;;-4.66;100.00;97574.72;4978469;28;20232;-68
2022/12/17 22:58:47;;;;;;;95.10;38.10;;;;;;;-4.63;100.00;97563.53;4982398;28;20049;-71
2022/12/17 23:01:12;;;;;;;91.93;35.78;;;;;;;-4.50;100.00;97564.19;4987857;28;20038;-68
2022/12/17 23:03:38;;;;;;;89.95;36.65;;;;;;;-4.66;100.00;97564.00;5002538;28;20038;-68
2022/12/17 23:06:29;;;;;;;89.88;37.50;;;;;;;-4.75;100.00;97570.84;4990019;28;20039;-70
2022/12/17 23:08:55;;;;;;;85.45;35.53;;;;;;;-4.67;100.00;97574.94;5009633;28;20037;-68
2022/12/17 23:11:23;;;;;;;100.45;38.92;;;;;;;-4.54;100.00;97576.44;5017971;28;20189;-69
2022/12/17 23:13:49;;;;;;;86.03;32.83;;;;;;;-4.42;100.00;97569.91;5023394;28;20045;-69
2022/12/17 23:16:15;;;;;;;85.35;34.40;;;;;;;-4.54;100.00;97576.44;5016382;28;20033;-69
2022/12/17 23:18:41;;;;;;;85.00;33.80;;;;;;;-4.59;100.00;97574.53;5021932;28;20033;-68
2022/12/17 23:21:16;;;;;;;87.68;34.08;;;;;;;-4.64;100.00;97569.13;4995259;28;20046;-69
2022/12/17 23:23:42;;;;;;;92.22;33.78;;;;;;;-4.67;100.00;97569.59;4986570;28;20038;-71
2022/12/17 23:26:13;;;;;;;91.05;34.90;;;;;;;-4.73;100.00;97579.41;4987722;28;20613;-68
2022/12/17 23:28:39;;;;;;;83.32;34.13;;;;;;;-4.73;100.00;97574.06;4987225;28;20047;-70
2022/12/17 23:31:10;;;;;;;85.35;33.17;;;;;;;-4.78;100.00;97571.31;4980766;28;20065;-70
2022/12/17 23:33:35;;;;;;;93.93;36.38;;;;;;;-4.80;100.00;97576.13;4985736;28;20050;-67
2022/12/17 23:36:06;;;;;;;97.65;37.97;;;;;;;-4.92;100.00;97570.84;4981877;28;20042;-67
2022/12/17 23:38:32;;;;;;;85.00;36.03;;;;;;;-4.85;100.00;97576.03;4995797;28;20038;-70
2022/12/17 23:41:04;;;;;;;87.72;36.13;;;;;;;-4.80;100.00;97579.59;5001041;28;20073;-68
2022/12/17 23:43:30;;;;;;;90.75;37.63;;;;;;;-4.99;100.00;97580.91;5006940;28;20128;-68
2022/12/17 23:45:56;;;;;;;93.35;38.40;;;;;;;-5.06;100.00;97581.09;5003085;28;20076;-67
2022/12/17 23:48:21;;;;;;;96.30;38.22;;;;;;;-5.10;100.00;97569.25;4991821;28;20582;-68
2022/12/17 23:50:47;;;;;;;88.60;36.65;;;;;;;-5.16;100.00;97575.59;5004027;28;20483;-68
2022/12/17 23:53:12;;;;;;;91.80;36.08;;;;;;;-5.06;100.00;97566.91;4999678;28;20053;-69
2022/12/17 23:55:38;;;;;;;88.15;35.35;;;;;;;-5.05;100.00;97577.34;5003712;28;20454;-68
2022/12/17 23:58:03;;;;;;;92.60;36.03;;;;;;;-4.84;100.00;97583.81;5002291;28;20046;-69
